sensor_id;sensor_type;location;lat;lon;timestamp;pressure;altitude;pressure_sealevel;temperature;humidity
62617;BME280;62539;51.190;6.808;2023-03-01T00:01:09;102663.63;;;18.51;52.39
62617;BME280;62539;51.190;6.808;2023-03-01T00:03:37;102673.25;;;18.49;52.32
62617;BME280;62539;51.190;6.808;2023-03-01T00:06:03;102670.66;;;18.46;52.52
62617;BME280;62539;51.190;6.808;2023-03-01T00:08:29;102675.91;;;18.43;52.27
62617;BME280;62539;51.190;6.808;2023-03-01T00:11:13;102672.41;;;18.40;52.61
62617;BME280;62539;51.190;6.808;2023-03-01T00:13:44;102663.69;;;18.36;52.59
62617;BME280;62539;51.190;6.808;2023-03-01T00:16:13;102670.69;;;18.34;52.53
62617;BME280;62539;51.190;6.808;2023-03-01T00:18:44;102675.06;;;18.30;52.56
62617;BME280;62539;51.190;6.808;2023-03-01T00:21:11;102679.47;;;18.30;52.51
62617;BME280;62539;51.190;6.808;2023-03-01T00:23:37;102667.22;;;18.26;52.94
62617;BME280;62539;51.190;6.808;2023-03-01T00:26:07;102675.09;;;18.24;53.00
62617;BME280;62539;51.190;6.808;2023-03-01T00:28:35;102671.59;;;18.22;52.78
62617;BME280;62539;51.190;6.808;2023-03-01T00:31:10;102671.59;;;18.19;52.77
62617;BME280;62539;51.190;6.808;2023-03-01T00:33:40;102662.84;;;18.17;52.86
62617;BME280;62539;51.190;6.808;2023-03-01T00:36:06;102663.75;;;18.14;52.79
62617;BME280;62539;51.190;6.808;2023-03-01T00:38:37;102675.13;;;18.13;52.71
62617;BME280;62539;51.190;6.808;2023-03-01T00:41:04;102658.50;;;18.08;52.96
62617;BME280;62539;51.190;6.808;2023-03-01T00:43:34;102669.00;;;18.05;53.03
62617;BME280;62539;51.190;6.808;2023-03-01T00:46:02;102658.53;;;18.02;53.09
62617;BME280;62539;51.190;6.808;2023-03-01T00:48:29;102649.75;;;18.01;53.04
62617;BME280;62539;51.190;6.808;2023-03-01T00:50:55;102647.16;;;18.00;53.13
62617;BME280;62539;51.190;6.808;2023-03-01T00:53:20;102646.25;;;17.98;53.14
62617;BME280;62539;51.190;6.808;2023-03-01T00:55:46;102650.63;;;17.96;53.22
62617;BME280;62539;51.190;6.808;2023-03-01T00:58:11;102643.63;;;17.95;53.14
62617;BME280;62539;51.190;6.808;2023-03-01T01:00:36;102644.50;;;17.93;53.46
62617;BME280;62539;51.190;6.808;2023-03-01T01:03:02;102641.84;;;17.92;53.16
62617;BME280;62539;51.190;6.808;2023-03-01T01:05:27;102642.75;;;17.96;53.34
62617;BME280;62539;51.190;6.808;2023-03-01T01:07:53;102644.50;;;18.06;53.00
62617;BME280;62539;51.190;6.808;2023-03-01T01:10:18;102642.69;;;18.22;52.60
62617;BME280;62539;51.190;6.808;2023-03-01T01:12:44;102646.13;;;18.41;52.15
62617;BME280;62539;51.190;6.808;2023-03-01T01:15:10;102646.03;;;18.61;51.65
62617;BME280;62539;51.190;6.808;2023-03-01T01:17:38;102636.28;;;18.80;51.09
62617;BME280;62539;51.190;6.808;2023-03-01T01:20:04;102635.31;;;19.00;50.76
62617;BME280;62539;51.190;6.808;2023-03-01T01:22:30;102623.78;;;19.20;50.36
62617;BME280;62539;51.190;6.808;2023-03-01T01:24:55;102627.16;;;19.39;49.77
62617;BME280;62539;51.190;6.808;2023-03-01T01:27:20;102622.59;;;19.55;49.15
62617;BME280;62539;51.190;6.808;2023-03-01T01:29:46;102611.09;;;19.67;48.84
62617;BME280;62539;51.190;6.808;2023-03-01T01:32:11;102607.47;;;19.76;48.47
62617;BME280;62539;51.190;6.808;2023-03-01T01:34:37;102602.19;;;19.79;48.21
62617;BME280;62539;51.190;6.808;2023-03-01T01:37:02;102594.25;;;19.82;47.94
62617;BME280;62539;51.190;6.808;2023-03-01T01:39:28;102592.47;;;19.84;48.24
62617;BME280;62539;51.190;6.808;2023-03-01T01:41:54;102597.75;;;19.84;48.12
62617;BME280;62539;51.190;6.808;2023-03-01T01:44:21;102596.00;;;19.83;48.10
62617;BME280;62539;51.190;6.808;2023-03-01T01:46:57;102589.00;;;19.79;47.99
62617;BME280;62539;51.190;6.808;2023-03-01T01:49:28;102584.66;;;19.76;48.00
62617;BME280;62539;51.190;6.808;2023-03-01T01:52:05;102582.06;;;19.72;48.12
62617;BME280;62539;51.190;6.808;2023-03-01T01:57:23;102568.88;;;19.75;48.21
62617;BME280;62539;51.190;6.808;2023-03-01T01:59:57;102568.78;;;19.84;48.14
62617;BME280;62539;51.190;6.808;2023-03-01T02:02:27;102568.66;;;19.96;47.85
62617;BME280;62539;51.190;6.808;2023-03-01T02:05:03;102573.81;;;20.07;47.61
62617;BME280;62539;51.190;6.808;2023-03-01T02:07:39;102562.28;;;20.16;47.25
62617;BME280;62539;51.190;6.808;2023-03-01T02:10:05;102559.59;;;20.21;46.81
62617;BME280;62539;51.190;6.808;2023-03-01T02:12:32;102563.03;;;20.24;46.64
62617;BME280;62539;51.190;6.808;2023-03-01T02:32:45;102588.09;;;19.83;47.33
62617;BME280;62539;51.190;6.808;2023-03-01T02:35:14;102588.97;;;19.82;47.52
62617;BME280;62539;51.190;6.808;2023-03-01T02:37:43;102581.91;;;19.87;47.49
62617;BME280;62539;51.190;6.808;2023-03-01T02:40:13;102573.94;;;19.96;47.40
62617;BME280;62539;51.190;6.808;2023-03-01T02:42:56;102576.41;;;20.09;47.27
62617;BME280;62539;51.190;6.808;2023-03-01T02:45:24;102566.66;;;20.19;46.86
62617;BME280;62539;51.190;6.808;2023-03-01T02:47:54;102565.69;;;20.26;46.44
62617;BME280;62539;51.190;6.808;2023-03-01T02:53:41;102570.00;;;20.30;46.01
62617;BME280;62539;51.190;6.808;2023-03-01T02:56:18;102567.38;;;20.29;45.97
62617;BME280;62539;51.190;6.808;2023-03-01T02:58:44;102562.16;;;20.25;46.36
62617;BME280;62539;51.190;6.808;2023-03-01T03:01:13;102560.44;;;20.21;46.34
62617;BME280;62539;51.190;6.808;2023-03-01T03:03:40;102552.63;;;20.15;46.58
62617;BME280;62539;51.190;6.808;2023-03-01T03:06:06;102551.81;;;20.10;46.63
62617;BME280;62539;51.190;6.808;2023-03-01T03:08:31;102553.63;;;20.05;46.62
62617;BME280;62539;51.190;6.808;2023-03-01T03:10:57;102555.44;;;20.00;46.79
62617;BME280;62539;51.190;6.808;2023-03-01T03:13:22;102558.13;;;19.98;46.83
62617;BME280;62539;51.190;6.808;2023-03-01T03:15:53;102558.94;;;20.02;46.78
62617;BME280;62539;51.190;6.808;2023-03-01T03:18:19;102561.53;;;20.06;46.91
62617;BME280;62539;51.190;6.808;2023-03-01T03:20:45;102553.50;;;20.14;46.65
62617;BME280;62539;51.190;6.808;2023-03-01T03:23:11;102549.88;;;20.24;46.47
62617;BME280;62539;51.190;6.808;2023-03-01T03:25:38;102547.97;;;20.36;46.14
62617;BME280;62539;51.190;6.808;2023-03-01T03:28:05;102545.22;;;20.44;45.88
62617;BME280;62539;51.190;6.808;2023-03-01T03:30:36;102545.19;;;20.47;45.60
62617;BME280;62539;51.190;6.808;2023-03-01T03:33:07;102538.13;;;20.47;45.64
62617;BME280;62539;51.190;6.808;2023-03-01T03:35:39;102542.56;;;20.45;45.57
62617;BME280;62539;51.190;6.808;2023-03-01T03:38:08;102537.31;;;20.42;45.71
62617;BME280;62539;51.190;6.808;2023-03-01T03:43:19;102539.25;;;20.31;45.85
62617;BME280;62539;51.190;6.808;2023-03-01T03:45:48;102546.34;;;20.25;45.93
62617;BME280;62539;51.190;6.808;2023-03-01T03:48:15;102542.03;;;20.18;46.30
62617;BME280;62539;51.190;6.808;2023-03-01T03:50:48;102531.63;;;20.10;46.14
62617;BME280;62539;51.190;6.808;2023-03-01T03:53:18;102536.03;;;20.07;46.23
62617;BME280;62539;51.190;6.808;2023-03-01T03:55:44;102529.91;;;20.06;46.36
62617;BME280;62539;51.190;6.808;2023-03-01T03:58:10;102531.63;;;20.10;46.34
62617;BME280;62539;51.190;6.808;2023-03-01T04:00:37;102525.34;;;20.19;46.33
62617;BME280;62539;51.190;6.808;2023-03-01T04:03:05;102529.59;;;20.30;46.17
62617;BME280;62539;51.190;6.808;2023-03-01T04:05:31;102518.03;;;20.40;45.93
62617;BME280;62539;51.190;6.808;2023-03-01T04:07:57;102518.81;;;20.47;45.63
62617;BME280;62539;51.190;6.808;2023-03-01T04:10:28;102524.06;;;20.50;45.57
62617;BME280;62539;51.190;6.808;2023-03-01T04:12:56;102518.75;;;20.51;45.46
62617;BME280;62539;51.190;6.808;2023-03-01T04:15:22;102511.75;;;20.49;45.32
62617;BME280;62539;51.190;6.808;2023-03-01T04:17:50;102505.66;;;20.45;45.22
62617;BME280;62539;51.190;6.808;2023-03-01T04:20:20;102506.59;;;20.41;45.29
62617;BME280;62539;51.190;6.808;2023-03-01T04:25:37;102505.03;;;20.27;45.71
62617;BME280;62539;51.190;6.808;2023-03-01T04:28:07;102509.53;;;20.19;45.90
62617;BME280;62539;51.190;6.808;2023-03-01T04:30:34;102513.16;;;20.12;45.93
62617;BME280;62539;51.190;6.808;2023-03-01T04:33:03;102504.44;;;20.07;45.98
62617;BME280;62539;51.190;6.808;2023-03-01T04:35:31;102499.13;;;20.10;46.34
62617;BME280;62539;51.190;6.808;2023-03-01T04:37:58;102505.91;;;20.26;46.20
62617;BME280;62539;51.190;6.808;2023-03-01T04:40:23;102509.09;;;20.50;45.85
62617;BME280;62539;51.190;6.808;2023-03-01T04:42:49;102513.13;;;20.75;45.34
62617;BME280;62539;51.190;6.808;2023-03-01T04:45:14;102497.81;;;20.97;44.88
62617;BME280;62539;51.190;6.808;2023-03-01T04:47:41;102502.78;;;21.15;44.38
62617;BME280;62539;51.190;6.808;2023-03-01T04:50:10;102498.94;;;21.32;44.31
62617;BME280;62539;51.190;6.808;2023-03-01T04:52:38;102498.69;;;21.46;43.52
62617;BME280;62539;51.190;6.808;2023-03-01T04:55:04;102495.00;;;21.55;43.28
62617;BME280;62539;51.190;6.808;2023-03-01T04:57:30;102498.38;;;21.62;43.29
62617;BME280;62539;51.190;6.808;2023-03-01T04:59:56;102492.22;;;21.63;43.14
62617;BME280;62539;51.190;6.808;2023-03-01T05:02:22;102493.09;;;21.63;42.90
62617;BME280;62539;51.190;6.808;2023-03-01T05:04:47;102496.63;;;21.61;43.05
62617;BME280;62539;51.190;6.808;2023-03-01T05:07:13;102496.75;;;21.56;43.00
62617;BME280;62539;51.190;6.808;2023-03-01T05:09:44;102493.25;;;21.54;43.29
62617;BME280;62539;51.190;6.808;2023-03-01T05:12:14;102495.84;;;21.57;42.98
62617;BME280;62539;51.190;6.808;2023-03-01T05:14:40;102493.94;;;21.65;42.97
62617;BME280;62539;51.190;6.808;2023-03-01T05:17:06;102484.94;;;21.76;42.41
62617;BME280;62539;51.190;6.808;2023-03-01T05:19:32;102486.53;;;21.83;42.31
62617;BME280;62539;51.190;6.808;2023-03-01T05:21:58;102491.66;;;21.91;42.48
62617;BME280;62539;51.190;6.808;2023-03-01T05:24:30;102497.69;;;21.97;42.43
62617;BME280;62539;51.190;6.808;2023-03-01T05:26:57;102492.25;;;22.03;42.19
62617;BME280;62539;51.190;6.808;2023-03-01T05:29:25;102490.38;;;22.09;42.05
62617;BME280;62539;51.190;6.808;2023-03-01T05:31:56;102488.50;;;22.14;42.04
62617;BME280;62539;51.190;6.808;2023-03-01T05:34:27;102494.59;;;22.17;41.86
62617;BME280;62539;51.190;6.808;2023-03-01T05:36:55;102489.22;;;22.21;41.70
62617;BME280;62539;51.190;6.808;2023-03-01T05:39:23;102481.22;;;22.25;41.74
62617;BME280;62539;51.190;6.808;2023-03-01T05:41:56;102485.53;;;22.28;41.34
62617;BME280;62539;51.190;6.808;2023-03-01T05:44:24;102482.81;;;22.31;41.68
62617;BME280;62539;51.190;6.808;2023-03-01T05:46:50;102482.81;;;22.32;41.22
62617;BME280;62539;51.190;6.808;2023-03-01T05:49:17;102479.25;;;22.34;41.57
62617;BME280;62539;51.190;6.808;2023-03-01T05:51:48;102476.56;;;22.35;41.76
62617;BME280;62539;51.190;6.808;2023-03-01T05:54:15;102479.19;;;22.37;41.65
62617;BME280;62539;51.190;6.808;2023-03-01T05:56:41;102476.47;;;22.38;41.75
62617;BME280;62539;51.190;6.808;2023-03-01T05:59:06;102480.88;;;22.39;41.98
62617;BME280;62539;51.190;6.808;2023-03-01T06:01:33;102482.59;;;22.40;41.87
62617;BME280;62539;51.190;6.808;2023-03-01T06:04:00;102476.41;;;22.41;42.11
62617;BME280;62539;51.190;6.808;2023-03-01T06:06:26;102481.69;;;22.43;42.07
62617;BME280;62539;51.190;6.808;2023-03-01T06:08:52;102482.53;;;22.45;42.36
62617;BME280;62539;51.190;6.808;2023-03-01T06:11:18;102486.03;;;22.45;42.49
62617;BME280;62539;51.190;6.808;2023-03-01T06:13:45;102480.75;;;22.45;42.22
62617;BME280;62539;51.190;6.808;2023-03-01T06:16:11;102481.63;;;22.46;41.75
62617;BME280;62539;51.190;6.808;2023-03-01T06:18:38;102480.78;;;22.44;41.83
62617;BME280;62539;51.190;6.808;2023-03-01T06:21:05;102476.38;;;22.43;42.02
62617;BME280;62539;51.190;6.808;2023-03-01T06:23:31;102480.78;;;22.44;42.02
62617;BME280;62539;51.190;6.808;2023-03-01T06:25:57;102486.09;;;22.42;42.00
62617;BME280;62539;51.190;6.808;2023-03-01T06:28:23;102487.88;;;22.42;42.10
62617;BME280;62539;51.190;6.808;2023-03-01T06:30:50;102482.66;;;22.39;41.91
62617;BME280;62539;51.190;6.808;2023-03-01T06:33:16;102479.19;;;22.37;42.06
62617;BME280;62539;51.190;6.808;2023-03-01T06:35:44;102472.16;;;22.36;41.87
62617;BME280;62539;51.190;6.808;2023-03-01T06:38:09;102473.06;;;22.33;42.20
62617;BME280;62539;51.190;6.808;2023-03-01T06:40:34;102479.41;;;22.27;42.02
62617;BME280;62539;51.190;6.808;2023-03-01T06:43:00;102467.22;;;22.20;42.54
62617;BME280;62539;51.190;6.808;2023-03-01T06:45:26;102474.47;;;22.12;42.58
62617;BME280;62539;51.190;6.808;2023-03-01T06:47:51;102469.38;;;22.02;42.57
62617;BME280;62539;51.190;6.808;2023-03-01T06:50:18;102472.16;;;21.96;42.37
62617;BME280;62539;51.190;6.808;2023-03-01T06:52:44;102468.75;;;21.91;42.74
62617;BME280;62539;51.190;6.808;2023-03-01T06:55:11;102474.09;;;21.88;42.65
62617;BME280;62539;51.190;6.808;2023-03-01T06:57:37;102473.25;;;21.86;42.96
62617;BME280;62539;51.190;6.808;2023-03-01T07:00:04;102467.09;;;21.85;43.04
62617;BME280;62539;51.190;6.808;2023-03-01T07:02:31;102475.91;;;21.86;43.14
62617;BME280;62539;51.190;6.808;2023-03-01T07:04:56;102466.19;;;21.88;42.92
62617;BME280;62539;51.190;6.808;2023-03-01T07:07:21;102473.16;;;21.91;43.19
62617;BME280;62539;51.190;6.808;2023-03-01T07:09:48;102466.03;;;21.94;43.16
62617;BME280;62539;51.190;6.808;2023-03-01T07:12:14;102471.25;;;21.97;43.03
62617;BME280;62539;51.190;6.808;2023-03-01T07:14:40;102470.31;;;22.00;41.15
62617;BME280;62539;51.190;6.808;2023-03-01T07:17:06;102461.75;;;21.88;35.26
62617;BME280;62539;51.190;6.808;2023-03-01T07:19:31;102456.84;;;21.70;31.85
62617;BME280;62539;51.190;6.808;2023-03-01T07:21:57;102451.91;;;21.53;31.20
62617;BME280;62539;51.190;6.808;2023-03-01T07:24:22;102455.44;;;21.52;31.51
62617;BME280;62539;51.190;6.808;2023-03-01T07:26:49;102450.91;;;21.58;31.61
62617;BME280;62539;51.190;6.808;2023-03-01T07:29:15;102446.22;;;21.73;31.82
62617;BME280;62539;51.190;6.808;2023-03-01T07:31:40;102452.06;;;21.89;32.18
62617;BME280;62539;51.190;6.808;2023-03-01T07:34:06;102447.34;;;22.03;32.54
62617;BME280;62539;51.190;6.808;2023-03-01T07:36:31;102451.38;;;22.20;32.86
62617;BME280;62539;51.190;6.808;2023-03-01T07:38:57;102452.75;;;22.37;33.10
62617;BME280;62539;51.190;6.808;2023-03-01T07:41:23;102457.75;;;22.49;33.57
62617;BME280;62539;51.190;6.808;2023-03-01T07:43:48;102453.03;;;22.62;33.53
62617;BME280;62539;51.190;6.808;2023-03-01T07:46:14;102457.25;;;22.69;33.73
62617;BME280;62539;51.190;6.808;2023-03-01T07:48:39;102457.22;;;22.71;33.91
62617;BME280;62539;51.190;6.808;2023-03-01T07:51:06;102454.59;;;22.71;34.49
62617;BME280;62539;51.190;6.808;2023-03-01T07:53:33;102465.09;;;22.74;34.70
62617;BME280;62539;51.190;6.808;2023-03-01T07:56:09;102462.34;;;22.77;34.87
62617;BME280;62539;51.190;6.808;2023-03-01T07:58:41;102463.94;;;22.84;35.01
62617;BME280;62539;51.190;6.808;2023-03-01T08:01:11;102466.44;;;22.89;34.83
62617;BME280;62539;51.190;6.808;2023-03-01T08:03:39;102467.25;;;22.93;35.16
62617;BME280;62539;51.190;6.808;2023-03-01T08:06:07;102463.69;;;22.94;35.37
62617;BME280;62539;51.190;6.808;2023-03-01T08:08:34;102463.69;;;22.94;35.38
62617;BME280;62539;51.190;6.808;2023-03-01T08:11:02;102463.69;;;22.94;35.51
62617;BME280;62539;51.190;6.808;2023-03-01T08:13:30;102458.34;;;22.95;35.75
62617;BME280;62539;51.190;6.808;2023-03-01T08:16:08;102459.97;;;23.01;35.92
62617;BME280;62539;51.190;6.808;2023-03-01T08:18:36;102466.84;;;23.08;35.92
62617;BME280;62539;51.190;6.808;2023-03-01T08:21:06;102456.91;;;23.16;35.70
62617;BME280;62539;51.190;6.808;2023-03-01T08:23:36;102453.22;;;23.24;35.74
62617;BME280;62539;51.190;6.808;2023-03-01T08:26:16;102460.03;;;23.32;35.96
62617;BME280;62539;51.190;6.808;2023-03-01T08:28:43;102455.34;;;23.42;35.67
62617;BME280;62539;51.190;6.808;2023-03-01T08:33:47;102447.88;;;23.57;35.71
62617;BME280;62539;51.190;6.808;2023-03-01T08:36:16;102454.84;;;23.59;36.23
62617;BME280;62539;51.190;6.808;2023-03-01T08:38:42;102451.25;;;23.62;36.17
62617;BME280;62539;51.190;6.808;2023-03-01T08:41:07;102453.00;;;23.63;36.35
62617;BME280;62539;51.190;6.808;2023-03-01T08:43:33;102450.28;;;23.64;35.71
62617;BME280;62539;51.190;6.808;2023-03-01T08:45:58;102451.16;;;23.65;36.40
62617;BME280;62539;51.190;6.808;2023-03-01T08:48:25;102441.38;;;23.67;36.08
62617;BME280;62539;51.190;6.808;2023-03-01T08:50:53;102440.41;;;23.70;36.43
62617;BME280;62539;51.190;6.808;2023-03-01T08:53:18;102440.28;;;23.74;35.98
62617;BME280;62539;51.190;6.808;2023-03-01T08:55:43;102448.00;;;23.82;35.97
62617;BME280;62539;51.190;6.808;2023-03-01T08:58:09;102451.22;;;23.92;35.94
62617;BME280;62539;51.190;6.808;2023-03-01T09:00:34;102449.19;;;24.02;35.81
62617;BME280;62539;51.190;6.808;2023-03-01T09:03:00;102445.34;;;24.12;35.70
62617;BME280;62539;51.190;6.808;2023-03-01T09:05:26;102442.28;;;24.25;35.87
62617;BME280;62539;51.190;6.808;2023-03-01T09:07:51;102438.34;;;24.36;35.69
62617;BME280;62539;51.190;6.808;2023-03-01T09:10:16;102438.81;;;24.49;35.17
62617;BME280;62539;51.190;6.808;2023-03-01T09:12:42;102450.69;;;24.64;35.01
62617;BME280;62539;51.190;6.808;2023-03-01T09:15:08;102437.84;;;24.79;35.14
62617;BME280;62539;51.190;6.808;2023-03-01T09:17:34;102435.53;;;24.95;35.03
62617;BME280;62539;51.190;6.808;2023-03-01T09:19:59;102437.69;;;25.09;34.80
62617;BME280;62539;51.190;6.808;2023-03-01T09:22:25;102439.72;;;25.26;34.73
62617;BME280;62539;51.190;6.808;2023-03-01T09:24:50;102432.03;;;25.42;34.20
62617;BME280;62539;51.190;6.808;2023-03-01T09:27:16;102440.28;;;25.60;33.82
62617;BME280;62539;51.190;6.808;2023-03-01T09:29:44;102436.91;;;25.78;33.73
62617;BME280;62539;51.190;6.808;2023-03-01T09:32:10;102429.00;;;25.99;33.44
62617;BME280;62539;51.190;6.808;2023-03-01T09:34:36;102426.56;;;26.17;33.34
62617;BME280;62539;51.190;6.808;2023-03-01T09:37:21;102427.47;;;26.38;33.13
62617;BME280;62539;51.190;6.808;2023-03-01T09:39:46;102414.38;;;26.54;32.88
62617;BME280;62539;51.190;6.808;2023-03-01T09:42:12;102413.63;;;26.71;32.92
62617;BME280;62539;51.190;6.808;2023-03-01T09:47:29;102406.69;;;27.08;32.26
62617;BME280;62539;51.190;6.808;2023-03-01T09:55:39;102399.47;;;27.69;31.17
62617;BME280;62539;51.190;6.808;2023-03-01T10:01:36;102402.00;;;28.09;30.83
62617;BME280;62539;51.190;6.808;2023-03-01T10:07:30;102406.13;;;28.52;30.46
62617;BME280;62539;51.190;6.808;2023-03-01T10:10:08;102405.94;;;28.72;30.23
62617;BME280;62539;51.190;6.808;2023-03-01T10:12:48;102394.16;;;28.94;29.99
62617;BME280;62539;51.190;6.808;2023-03-01T10:15:18;102393.06;;;29.14;29.51
62617;BME280;62539;51.190;6.808;2023-03-01T10:18:00;102391.09;;;29.34;29.27
62617;BME280;62539;51.190;6.808;2023-03-01T10:20:58;102385.69;;;29.52;29.10
62617;BME280;62539;51.190;6.808;2023-03-01T10:23:27;102390.06;;;29.69;28.61
62617;BME280;62539;51.190;6.808;2023-03-01T10:26:08;102380.38;;;29.82;28.77
62617;BME280;62539;51.190;6.808;2023-03-01T10:31:39;102370.19;;;30.05;28.44
62617;BME280;62539;51.190;6.808;2023-03-01T10:34:34;102375.34;;;30.08;28.67
62617;BME280;62539;51.190;6.808;2023-03-01T10:37:17;102372.25;;;30.16;28.34
62617;BME280;62539;51.190;6.808;2023-03-01T10:42:38;102371.25;;;30.47;27.90
62617;BME280;62539;51.190;6.808;2023-03-01T10:48:15;102362.88;;;30.83;27.63
62617;BME280;62539;51.190;6.808;2023-03-01T10:50:46;102355.00;;;31.08;27.04
62617;BME280;62539;51.190;6.808;2023-03-01T10:53:22;102353.47;;;31.33;26.68
62617;BME280;62539;51.190;6.808;2023-03-01T10:56:04;102349.28;;;31.57;26.52
62617;BME280;62539;51.190;6.808;2023-03-01T10:58:33;102349.91;;;31.75;26.21
62617;BME280;62539;51.190;6.808;2023-03-01T11:01:46;102346.06;;;31.92;26.33
62617;BME280;62539;51.190;6.808;2023-03-01T11:04:08;102344.94;;;32.09;25.93
62617;BME280;62539;51.190;6.808;2023-03-01T11:06:40;102339.56;;;32.22;25.94
62617;BME280;62539;51.190;6.808;2023-03-01T11:09:21;102345.00;;;32.35;25.58
62617;BME280;62539;51.190;6.808;2023-03-01T11:11:53;102329.94;;;32.45;25.26
62617;BME280;62539;51.190;6.808;2023-03-01T11:14:24;102326.50;;;32.56;25.17
62617;BME280;62539;51.190;6.808;2023-03-01T11:17:01;102310.81;;;32.63;25.01
62617;BME280;62539;51.190;6.808;2023-03-01T11:19:37;102315.75;;;32.69;25.24
62617;BME280;62539;51.190;6.808;2023-03-01T11:22:18;102311.66;;;32.76;25.23
62617;BME280;62539;51.190;6.808;2023-03-01T11:24:49;102305.84;;;32.82;24.77
62617;BME280;62539;51.190;6.808;2023-03-01T11:29:59;102298.94;;;32.91;24.98
62617;BME280;62539;51.190;6.808;2023-03-01T11:32:36;102292.38;;;32.95;24.58
62617;BME280;62539;51.190;6.808;2023-03-01T11:35:24;102294.22;;;32.95;24.60
62617;BME280;62539;51.190;6.808;2023-03-01T11:38:22;102278.84;;;32.97;24.74
62617;BME280;62539;51.190;6.808;2023-03-01T11:43:53;102285.34;;;33.06;24.50
62617;BME280;62539;51.190;6.808;2023-03-01T11:49:06;102292.00;;;33.13;24.68
62617;BME280;62539;51.190;6.808;2023-03-01T11:55:08;102288.53;;;33.24;24.12
62617;BME280;62539;51.190;6.808;2023-03-01T12:01:11;102291.50;;;33.32;24.04
62617;BME280;62539;51.190;6.808;2023-03-01T12:03:51;102284.41;;;33.31;24.22
62617;BME280;62539;51.190;6.808;2023-03-01T12:06:56;102279.13;;;33.42;24.10
62617;BME280;62539;51.190;6.808;2023-03-01T12:12:28;102265.94;;;33.51;23.59
62617;BME280;62539;51.190;6.808;2023-03-01T12:15:26;102263.59;;;33.46;22.70
62617;BME280;62539;51.190;6.808;2023-03-01T12:18:22;102256.91;;;33.52;23.13
62617;BME280;62539;51.190;6.808;2023-03-01T12:21:37;102258.88;;;33.61;23.59
62617;BME280;62539;51.190;6.808;2023-03-01T12:27:32;102258.41;;;33.67;21.76
62617;BME280;62539;51.190;6.808;2023-03-01T12:30:33;102252.97;;;33.45;20.01
62617;BME280;62539;51.190;6.808;2023-03-01T12:36:14;102240.47;;;33.44;21.11
62617;BME280;62539;51.190;6.808;2023-03-01T12:45:20;102227.19;;;33.65;22.24
62617;BME280;62539;51.190;6.808;2023-03-01T12:48:34;102215.72;;;33.74;22.21
62617;BME280;62539;51.190;6.808;2023-03-01T12:51:28;102210.97;;;33.78;21.79
62617;BME280;62539;51.190;6.808;2023-03-01T12:53:58;102199.97;;;33.81;22.01
62617;BME280;62539;51.190;6.808;2023-03-01T12:56:30;102206.19;;;33.81;21.52
62617;BME280;62539;51.190;6.808;2023-03-01T12:59:24;102198.00;;;33.83;21.62
62617;BME280;62539;51.190;6.808;2023-03-01T13:02:09;102207.66;;;33.85;22.30
62617;BME280;62539;51.190;6.808;2023-03-01T13:05:01;102196.34;;;33.93;22.21
62617;BME280;62539;51.190;6.808;2023-03-01T13:08:12;102184.81;;;33.91;21.83
62617;BME280;62539;51.190;6.808;2023-03-01T13:10:49;102192.88;;;33.91;21.92
62617;BME280;62539;51.190;6.808;2023-03-01T13:13:22;102188.47;;;33.90;21.99
62617;BME280;62539;51.190;6.808;2023-03-01T13:15:52;102200.22;;;33.89;22.35
62617;BME280;62539;51.190;6.808;2023-03-01T13:20:50;102189.47;;;33.89;22.24
62617;BME280;62539;51.190;6.808;2023-03-01T13:34:01;102175.84;;;33.79;22.58
62617;BME280;62539;51.190;6.808;2023-03-01T13:41:52;102168.00;;;33.65;22.90
62617;BME280;62539;51.190;6.808;2023-03-01T13:46:51;102167.91;;;33.66;23.08
62617;BME280;62539;51.190;6.808;2023-03-01T13:49:21;102163.50;;;33.65;22.73
62617;BME280;62539;51.190;6.808;2023-03-01T13:51:50;102163.72;;;33.62;22.96
62617;BME280;62539;51.190;6.808;2023-03-01T13:54:25;102159.09;;;33.64;23.21
62617;BME280;62539;51.190;6.808;2023-03-01T13:56:58;102160.31;;;33.60;22.76
62617;BME280;62539;51.190;6.808;2023-03-01T13:59:25;102151.59;;;33.45;22.85
62617;BME280;62539;51.190;6.808;2023-03-01T14:01:59;102154.59;;;33.29;23.43
62617;BME280;62539;51.190;6.808;2023-03-01T14:04:31;102147.25;;;32.95;23.95
62617;BME280;62539;51.190;6.808;2023-03-01T14:07:16;102154.47;;;32.58;24.49
62617;BME280;62539;51.190;6.808;2023-03-01T14:09:45;102149.72;;;32.37;24.58
62617;BME280;62539;51.190;6.808;2023-03-01T14:18:55;102130.44;;;31.80;25.31
62617;BME280;62539;51.190;6.808;2023-03-01T14:21:45;102134.94;;;31.66;25.77
62617;BME280;62539;51.190;6.808;2023-03-01T14:24:20;102137.72;;;31.52;26.20
62617;BME280;62539;51.190;6.808;2023-03-01T14:26:48;102133.94;;;31.42;26.58
62617;BME280;62539;51.190;6.808;2023-03-01T14:29:35;102120.34;;;31.32;26.47
62617;BME280;62539;51.190;6.808;2023-03-01T14:34:43;102111.69;;;31.14;27.25
62617;BME280;62539;51.190;6.808;2023-03-01T14:37:17;102114.00;;;31.05;27.29
62617;BME280;62539;51.190;6.808;2023-03-01T14:39:50;102112.91;;;30.95;27.74
62617;BME280;62539;51.190;6.808;2023-03-01T14:42:22;102100.06;;;30.87;27.60
62617;BME280;62539;51.190;6.808;2023-03-01T14:44:53;102093.25;;;30.82;27.99
62617;BME280;62539;51.190;6.808;2023-03-01T14:47:31;102094.75;;;30.73;28.34
62617;BME280;62539;51.190;6.808;2023-03-01T14:50:08;102092.47;;;30.67;28.36
62617;BME280;62539;51.190;6.808;2023-03-01T14:52:42;102088.53;;;30.58;28.76
62617;BME280;62539;51.190;6.808;2023-03-01T14:55:18;102085.50;;;30.49;29.13
62617;BME280;62539;51.190;6.808;2023-03-01T14:57:51;102080.56;;;30.43;29.14
62617;BME280;62539;51.190;6.808;2023-03-01T15:00:22;102079.91;;;30.40;28.88
62617;BME280;62539;51.190;6.808;2023-03-01T15:02:56;102078.41;;;30.35;29.10
62617;BME280;62539;51.190;6.808;2023-03-01T15:05:33;102072.97;;;30.23;29.34